Portada
METAR-TAF:

METAR-TAF

Aeropuertos :

Caracas, Venezuela

Aeropuerto Internacional de Maiquetía Simón Bolívar

latitud: 10-36N, longitud: 066-59W, altitud: 43 m

Observación

El informe se hizo hace 54 minutos, a las 17:00 UTC
Viento 3 kt del noreste
Temperatura 32°C
Humedad 56%
Presión 1012 hPa
Visibilidad 10 km o más
Nubes dispersas a una altura de 1600 ft

METAR: SVMI 281700Z 05003KT 9999 SCT016 32/22 Q1012

Hora: 13:54 (17:54 UTC)

Pronóstico

El informe se hizo hace 1 hora y 54 minutos, a las 16:00 UTC
Pronóstico válido del 28 a las 18 UTC al 29 a las 18 UTC
Viento 5 kt del noreste
Visibilidad 10 km o más
Nubes dispersas a una altura de 1600 ft
Evolucionando progresivamente
del 28 a las 18 UTC al 28 a las 22 UTC
Viento 5 kt del este
Escasas nubes a una altura de 1600 ft
Nubes dispersas a una altura de 8000 ft

TAF: SVMI 281600Z 2818/2918 04005KT 9999 SCT016 TX34/18Z TN24/09Z BECMG 2818/2822 09005KT FEW016 SCT080

Observaciones y pronósticos meteorológicos de más de 4000 aeropuertos (mensajes METAR y TAF).

Los puntos amarillos y rojos representan las estaciones disponibles.

Ponga el ratón en el punto deseado para ver el nombre de la estación.

Haga clic para ver las observaciones y los pronósticos meteorológicos.

Para cambiar el mapa : haga clic en los botones verdes con una cruz de color negro para hacer un zoom, en el botón verde con un guión para alejar o en las flechas verdes para mapas adyacentes.


METAR-TAF: